FDX1234 KLAX-KMEM
Flight info
| Callsign | FDX1234 |
|---|---|
| Flight time | N/A |
| Altitude | 35000 |
| Route | DOTSS2 CLEEE PKE HIDAT KA27O NABOB KA27Q KA27S IMMAS KA30Y KF30A IRW LITTR HOBRK4 |
| Aircraft | A306/H-SDE3FGHIRWY/LB1 |
Departure
| Time | 2026-04-23 03:40 |
|---|---|
| Airport | Los Angeles International Airport (KLAX) |
Arrival
| Time | N/A |
|---|---|
| Airport | Memphis International Airport (KMEM) |
| Time | Latitude | Longitude | Altitude | Speed | Heading |
|---|---|---|---|---|---|
| 2026-04-23 03:04 | 33.93404 | -118.38772 | 110 ft | 0 kts | 174° |
| 2026-04-23 03:05 | 33.93402 | -118.38773 | 102 ft | 0 kts | 173° |
| 2026-04-23 03:27 | 33.93411 | -118.38774 | 101 ft | 3 kts | 173° |
| 2026-04-23 03:27 | 33.93431 | -118.38777 | 100 ft | 3 kts | 173° |
| 2026-04-23 03:27 | 33.93450 | -118.38780 | 103 ft | 3 kts | 182° |
| 2026-04-23 03:27 | 33.93465 | -118.38777 | 103 ft | 3 kts | 224° |
| 2026-04-23 03:28 | 33.93475 | -118.38760 | 101 ft | 3 kts | 258° |
| 2026-04-23 03:28 | 33.93477 | -118.38747 | 100 ft | 2 kts | 263° |
| 2026-04-23 03:28 | 33.93479 | -118.38727 | 103 ft | 2 kts | 263° |
| 2026-04-23 03:28 | 33.93480 | -118.38723 | 102 ft | 0 kts | 263° |
| 2026-04-23 03:33 | 33.93479 | -118.38727 | 103 ft | 3 kts | 263° |
| 2026-04-23 03:34 | 33.93480 | -118.38778 | 103 ft | 9 kts | 277° |
| 2026-04-23 03:34 | 33.93522 | -118.38799 | 105 ft | 9 kts | 9° |
| 2026-04-23 03:34 | 33.93567 | -118.38727 | 105 ft | 14 kts | 76° |
| 2026-04-23 03:34 | 33.93579 | -118.38611 | 106 ft | 13 kts | 82° |
| 2026-04-23 03:35 | 33.93590 | -118.38511 | 106 ft | 11 kts | 82° |
| 2026-04-23 03:35 | 33.93600 | -118.38404 | 106 ft | 17 kts | 84° |
| 2026-04-23 03:35 | 33.93620 | -118.38289 | 107 ft | 8 kts | 50° |
| 2026-04-23 03:35 | 33.93635 | -118.38282 | 108 ft | 0 kts | 8° |
| 2026-04-23 03:37 | 33.93637 | -118.38282 | 109 ft | 1 kts | 8° |
| 2026-04-23 03:37 | 33.93658 | -118.38280 | 108 ft | 5 kts | 1° |
| 2026-04-23 03:38 | 33.93701 | -118.38284 | 115 ft | 8 kts | 355° |
| 2026-04-23 03:38 | 33.93730 | -118.38365 | 116 ft | 17 kts | 259° |
| 2026-04-23 03:38 | 33.93722 | -118.38429 | 112 ft | 0 kts | 262° |
| 2026-04-23 03:39 | 33.93698 | -118.38659 | 113 ft | 60 kts | 264° |
| 2026-04-23 03:39 | 33.93623 | -118.39401 | 111 ft | 116 kts | 264° |
| 2026-04-23 03:39 | 33.93501 | -118.40565 | 176 ft | 159 kts | 262° |
| 2026-04-23 03:40 | 33.93364 | -118.41894 | 840 ft | 161 kts | 263° |
| 2026-04-23 03:40 | 33.93231 | -118.43242 | 1590 ft | 164 kts | 264° |
| 2026-04-23 03:40 | 33.93090 | -118.44610 | 2261 ft | 170 kts | 264° |
| 2026-04-23 03:40 | 33.92748 | -118.45979 | 2960 ft | 178 kts | 246° |
| 2026-04-23 03:41 | 33.91963 | -118.47343 | 3211 ft | 215 kts | 232° |
| 2026-04-23 03:41 | 33.90953 | -118.48794 | 3562 ft | 240 kts | 233° |
| 2026-04-23 03:41 | 33.89859 | -118.50462 | 3901 ft | 267 kts | 233° |
| 2026-04-23 03:41 | 33.88660 | -118.52286 | 3995 ft | 278 kts | 233° |
| 2026-04-23 03:42 | 33.87460 | -118.54056 | 3997 ft | 267 kts | 229° |
| 2026-04-23 03:42 | 33.86022 | -118.55399 | 4325 ft | 267 kts | 207° |
| 2026-04-23 03:42 | 33.84187 | -118.55885 | 4956 ft | 277 kts | 179° |
| 2026-04-23 03:42 | 33.82259 | -118.55538 | 5842 ft | 281 kts | 169° |
| 2026-04-23 03:43 | 33.80335 | -118.55011 | 6730 ft | 285 kts | 169° |
| 2026-04-23 03:43 | 33.78389 | -118.54462 | 7596 ft | 288 kts | 169° |
| 2026-04-23 03:43 | 33.76411 | -118.53913 | 8464 ft | 293 kts | 171° |
| 2026-04-23 03:43 | 33.74427 | -118.53369 | 9296 ft | 298 kts | 172° |
| 2026-04-23 03:44 | 33.72389 | -118.52778 | 10108 ft | 305 kts | 168° |
| 2026-04-23 03:44 | 33.70405 | -118.51627 | 10522 ft | 332 kts | 145° |
| 2026-04-23 03:44 | 33.68878 | -118.49423 | 10800 ft | 358 kts | 118° |
| 2026-04-23 03:44 | 33.67931 | -118.46578 | 11111 ft | 376 kts | 109° |
| 2026-04-23 03:45 | 33.67078 | -118.43532 | 11394 ft | 393 kts | 108° |
| 2026-04-23 03:45 | 33.66186 | -118.40358 | 11694 ft | 409 kts | 109° |
| 2026-04-23 03:45 | 33.65244 | -118.37082 | 12130 ft | 418 kts | 109° |
| 2026-04-23 03:45 | 33.64527 | -118.33678 | 12643 ft | 424 kts | 96° |
| 2026-04-23 03:46 | 33.64399 | -118.30164 | 13227 ft | 427 kts | 88° |
| 2026-04-23 03:46 | 33.64414 | -118.26565 | 13782 ft | 433 kts | 88° |
| 2026-04-23 03:46 | 33.64437 | -118.22934 | 14315 ft | 437 kts | 88° |
| 2026-04-23 03:46 | 33.64452 | -118.19260 | 14843 ft | 441 kts | 88° |
| 2026-04-23 03:47 | 33.64460 | -118.15553 | 15352 ft | 446 kts | 89° |
| 2026-04-23 03:47 | 33.64463 | -118.11870 | 15884 ft | 450 kts | 89° |
| 2026-04-23 03:47 | 33.64463 | -118.08094 | 16436 ft | 454 kts | 89° |
| 2026-04-23 03:47 | 33.64461 | -118.04276 | 16982 ft | 458 kts | 89° |
| 2026-04-23 03:48 | 33.64457 | -118.00434 | 17539 ft | 462 kts | 89° |
| 2026-04-23 03:48 | 33.64452 | -117.96610 | 18056 ft | 466 kts | 90° |
| 2026-04-23 03:48 | 33.64445 | -117.92697 | 18545 ft | 470 kts | 90° |
| 2026-04-23 03:48 | 33.64437 | -117.89026 | 18947 ft | 473 kts | 90° |
| 2026-04-23 03:49 | 33.64428 | -117.85099 | 19391 ft | 477 kts | 90° |
| 2026-04-23 03:49 | 33.64460 | -117.81150 | 19812 ft | 480 kts | 86° |
| 2026-04-23 03:49 | 33.64880 | -117.77170 | 20246 ft | 482 kts | 77° |
| 2026-04-23 03:49 | 33.65598 | -117.73227 | 20677 ft | 485 kts | 75° |
| 2026-04-23 03:50 | 33.66369 | -117.69273 | 21096 ft | 488 kts | 75° |
| 2026-04-23 03:50 | 33.67147 | -117.65288 | 21515 ft | 491 kts | 75° |
| 2026-04-23 03:50 | 33.67925 | -117.61275 | 21930 ft | 495 kts | 75° |
| 2026-04-23 03:50 | 33.68705 | -117.57227 | 22329 ft | 498 kts | 75° |
| 2026-04-23 03:51 | 33.69487 | -117.53160 | 22758 ft | 501 kts | 75° |
| 2026-04-23 03:51 | 33.70268 | -117.49074 | 23171 ft | 503 kts | 75° |
| 2026-04-23 03:51 | 33.71045 | -117.45006 | 23498 ft | 507 kts | 75° |
| 2026-04-23 03:51 | 33.71833 | -117.40864 | 23812 ft | 511 kts | 75° |
| 2026-04-23 03:52 | 33.72625 | -117.36689 | 24138 ft | 513 kts | 75° |
| 2026-04-23 03:52 | 33.73419 | -117.32492 | 24441 ft | 516 kts | 75° |
| 2026-04-23 03:52 | 33.74217 | -117.28275 | 24768 ft | 517 kts | 75° |
| 2026-04-23 03:52 | 33.74890 | -117.24018 | 25054 ft | 521 kts | 81° |
| 2026-04-23 03:53 | 33.75077 | -117.19652 | 25366 ft | 524 kts | 90° |
| 2026-04-23 03:53 | 33.75015 | -117.15267 | 25727 ft | 526 kts | 91° |
| 2026-04-23 03:53 | 33.74916 | -117.10914 | 26020 ft | 528 kts | 91° |
| 2026-04-23 03:53 | 33.74814 | -117.06487 | 26313 ft | 530 kts | 91° |
| 2026-04-23 03:54 | 33.74715 | -117.02056 | 26587 ft | 531 kts | 91° |
| 2026-04-23 03:54 | 33.74616 | -116.97606 | 26856 ft | 533 kts | 91° |
| 2026-04-23 03:54 | 33.74517 | -116.93136 | 27113 ft | 535 kts | 91° |
| 2026-04-23 03:54 | 33.74417 | -116.88635 | 27370 ft | 537 kts | 91° |
| 2026-04-23 03:55 | 33.74316 | -116.84184 | 27610 ft | 539 kts | 91° |
| 2026-04-23 03:55 | 33.74213 | -116.79673 | 27914 ft | 540 kts | 91° |
| 2026-04-23 03:55 | 33.74109 | -116.75152 | 28301 ft | 539 kts | 91° |
| 2026-04-23 03:55 | 33.74003 | -116.70647 | 28571 ft | 538 kts | 92° |
| 2026-04-23 03:56 | 33.73895 | -116.66152 | 28901 ft | 538 kts | 92° |
| 2026-04-23 03:56 | 33.73790 | -116.61720 | 29304 ft | 536 kts | 92° |
| 2026-04-23 03:56 | 33.73679 | -116.57235 | 29612 ft | 536 kts | 92° |
| 2026-04-23 03:56 | 33.73566 | -116.52729 | 29951 ft | 536 kts | 92° |
| 2026-04-23 03:57 | 33.73491 | -116.49768 | 30166 ft | 536 kts | 92° |
| 2026-04-23 03:57 | 33.73338 | -116.43818 | 30433 ft | 538 kts | 92° |
| 2026-04-23 03:57 | 33.73220 | -116.39309 | 30607 ft | 541 kts | 92° |
| 2026-04-23 03:57 | 33.73139 | -116.36253 | 30742 ft | 542 kts | 92° |
| 2026-04-23 03:58 | 33.73020 | -116.31769 | 30962 ft | 543 kts | 92° |
| 2026-04-23 03:58 | 33.72897 | -116.27223 | 31171 ft | 545 kts | 92° |
| 2026-04-23 03:58 | 33.72772 | -116.22653 | 31384 ft | 547 kts | 92° |
| 2026-04-23 03:58 | 33.72645 | -116.18076 | 31604 ft | 548 kts | 92° |
| 2026-04-23 03:59 | 33.72516 | -116.13482 | 31824 ft | 550 kts | 92° |
| 2026-04-23 03:59 | 33.72524 | -116.08881 | 32033 ft | 552 kts | 84° |
| 2026-04-23 03:59 | 33.73186 | -116.04399 | 32248 ft | 550 kts | 72° |
| 2026-04-23 03:59 | 33.74251 | -115.99984 | 32523 ft | 549 kts | 70° |
| 2026-04-23 04:00 | 33.75433 | -115.95617 | 32724 ft | 550 kts | 68° |
| 2026-04-23 04:00 | 33.76668 | -115.91290 | 32945 ft | 551 kts | 67° |
| 2026-04-23 04:00 | 33.77927 | -115.86935 | 33183 ft | 552 kts | 67° |
| 2026-04-23 04:00 | 33.79196 | -115.82516 | 33389 ft | 553 kts | 67° |
| 2026-04-23 04:01 | 33.80426 | -115.78173 | 33618 ft | 554 kts | 68° |
| 2026-04-23 04:01 | 33.81656 | -115.73775 | 33843 ft | 555 kts | 68° |
| 2026-04-23 04:01 | 33.82878 | -115.69361 | 34047 ft | 555 kts | 68° |
| 2026-04-23 04:01 | 33.84078 | -115.64995 | 34284 ft | 555 kts | 68° |
| 2026-04-23 04:02 | 33.85287 | -115.60586 | 34527 ft | 554 kts | 68° |
| 2026-04-23 04:02 | 33.86500 | -115.56148 | 34726 ft | 554 kts | 68° |
| 2026-04-23 04:02 | 33.87690 | -115.51793 | 34903 ft | 555 kts | 68° |
| 2026-04-23 04:02 | 33.88898 | -115.47369 | 34921 ft | 551 kts | 68° |
| 2026-04-23 04:03 | 33.91278 | -115.38631 | 34935 ft | 550 kts | 69° |
| 2026-04-23 04:03 | 33.93664 | -115.29850 | 34928 ft | 556 kts | 69° |
| 2026-04-23 04:04 | 33.96055 | -115.21027 | 34916 ft | 555 kts | 69° |
| 2026-04-23 04:04 | 33.98449 | -115.12164 | 34911 ft | 554 kts | 69° |
| 2026-04-23 04:05 | 34.00807 | -115.03403 | 34905 ft | 552 kts | 69° |
| 2026-04-23 04:05 | 34.03177 | -114.94570 | 34906 ft | 551 kts | 69° |
| 2026-04-23 04:06 | 34.05535 | -114.85756 | 34902 ft | 551 kts | 69° |
| 2026-04-23 04:06 | 34.07868 | -114.77003 | 34893 ft | 551 kts | 69° |
| 2026-04-23 04:07 | 34.10210 | -114.68203 | 34893 ft | 550 kts | 69° |
| 2026-04-23 04:07 | 34.12621 | -114.59478 | 34876 ft | 550 kts | 68° |
| 2026-04-23 04:08 | 34.15089 | -114.50732 | 34880 ft | 550 kts | 68° |
| 2026-04-23 04:08 | 34.17548 | -114.41983 | 34879 ft | 550 kts | 69° |
| 2026-04-23 04:09 | 34.19992 | -114.33216 | 34878 ft | 550 kts | 69° |
| 2026-04-23 04:09 | 34.22425 | -114.24443 | 34878 ft | 550 kts | 69° |
| 2026-04-23 04:10 | 34.24834 | -114.15730 | 34884 ft | 550 kts | 69° |
| 2026-04-23 04:10 | 34.27255 | -114.06950 | 34878 ft | 548 kts | 69° |
| 2026-04-23 04:11 | 34.29651 | -113.98239 | 34877 ft | 548 kts | 69° |
| 2026-04-23 04:11 | 34.32048 | -113.89483 | 34891 ft | 547 kts | 69° |
| 2026-04-23 04:12 | 34.34439 | -113.80722 | 34881 ft | 547 kts | 70° |
| 2026-04-23 04:12 | 34.36807 | -113.72023 | 34882 ft | 547 kts | 70° |
| 2026-04-23 04:13 | 34.39188 | -113.63250 | 34885 ft | 546 kts | 70° |